sensor_id;sensor_type;location;lat;lon;timestamp;pressure;altitude;pressure_sealevel;temperature;humidity
42411;BME280;28056;51.112;0.984;2024-02-15T00:02:09;100498.64;;;10.77;100.00
42411;BME280;28056;51.112;0.984;2024-02-15T00:04:36;100491.51;;;10.44;100.00
42411;BME280;28056;51.112;0.984;2024-02-15T00:07:04;100494.69;;;10.49;100.00
42411;BME280;28056;51.112;0.984;2024-02-15T00:09:32;100490.97;;;10.85;100.00
42411;BME280;28056;51.112;0.984;2024-02-15T00:11:59;100485.25;;;10.79;100.00
42411;BME280;28056;51.112;0.984;2024-02-15T00:14:27;100480.97;;;10.75;100.00
42411;BME280;28056;51.112;0.984;2024-02-15T00:16:55;100481.64;;;10.62;100.00
42411;BME280;28056;51.112;0.984;2024-02-15T00:19:23;100483.50;;;11.09;100.00
42411;BME280;28056;51.112;0.984;2024-02-15T00:21:50;100489.05;;;11.44;100.00
42411;BME280;28056;51.112;0.984;2024-02-15T00:24:18;100488.72;;;10.88;100.00
42411;BME280;28056;51.112;0.984;2024-02-15T00:26:45;100492.55;;;11.24;100.00
42411;BME280;28056;51.112;0.984;2024-02-15T00:29:13;100491.03;;;10.20;100.00
42411;BME280;28056;51.112;0.984;2024-02-15T00:31:41;100493.80;;;10.95;100.00
42411;BME280;28056;51.112;0.984;2024-02-15T00:34:08;100494.05;;;11.38;100.00
42411;BME280;28056;51.112;0.984;2024-02-15T00:36:36;100491.89;;;10.97;100.00
42411;BME280;28056;51.112;0.984;2024-02-15T00:39:04;100493.94;;;10.37;100.00
42411;BME280;28056;51.112;0.984;2024-02-15T00:41:32;100494.87;;;11.12;100.00
42411;BME280;28056;51.112;0.984;2024-02-15T00:43:59;100497.95;;;10.90;100.00
42411;BME280;28056;51.112;0.984;2024-02-15T00:46:27;100500.89;;;11.59;100.00
42411;BME280;28056;51.112;0.984;2024-02-15T00:48:55;100508.06;;;9.47;100.00
42411;BME280;28056;51.112;0.984;2024-02-15T00:51:22;100502.59;;;10.77;100.00
42411;BME280;28056;51.112;0.984;2024-02-15T00:53:50;100496.53;;;11.07;100.00
42411;BME280;28056;51.112;0.984;2024-02-15T00:56:18;100492.17;;;11.09;100.00
42411;BME280;28056;51.112;0.984;2024-02-15T00:58:45;100490.88;;;11.93;100.00
42411;BME280;28056;51.112;0.984;2024-02-15T01:04:47;100486.82;;;11.47;100.00
42411;BME280;28056;51.112;0.984;2024-02-15T01:07:15;100483.25;;;11.09;100.00
42411;BME280;28056;51.112;0.984;2024-02-15T01:09:42;100481.00;;;10.47;100.00
42411;BME280;28056;51.112;0.984;2024-02-15T01:12:09;100480.42;;;10.40;100.00
42411;BME280;28056;51.112;0.984;2024-02-15T01:14:37;100475.80;;;9.88;100.00
42411;BME280;28056;51.112;0.984;2024-02-15T01:17:05;100477.48;;;10.72;100.00
42411;BME280;28056;51.112;0.984;2024-02-15T01:19:33;100475.78;;;9.92;100.00
42411;BME280;28056;51.112;0.984;2024-02-15T01:22:00;100473.91;;;9.91;100.00
42411;BME280;28056;51.112;0.984;2024-02-15T01:24:28;100472.20;;;10.98;100.00
42411;BME280;28056;51.112;0.984;2024-02-15T01:26:56;100474.03;;;10.16;100.00
42411;BME280;28056;51.112;0.984;2024-02-15T01:29:23;100468.72;;;11.21;100.00
42411;BME280;28056;51.112;0.984;2024-02-15T01:31:51;100472.69;;;10.51;100.00
42411;BME280;28056;51.112;0.984;2024-02-15T01:34:19;100460.83;;;10.77;100.00
42411;BME280;28056;51.112;0.984;2024-02-15T01:36:48;100468.64;;;9.68;100.00
42411;BME280;28056;51.112;0.984;2024-02-15T01:39:15;100467.61;;;10.09;100.00
42411;BME280;28056;51.112;0.984;2024-02-15T01:41:47;100463.54;;;10.99;100.00
42411;BME280;28056;51.112;0.984;2024-02-15T01:44:14;100459.92;;;9.86;100.00
42411;BME280;28056;51.112;0.984;2024-02-15T01:46:42;100457.19;;;11.39;100.00
42411;BME280;28056;51.112;0.984;2024-02-15T01:49:10;100448.37;;;10.41;100.00
42411;BME280;28056;51.112;0.984;2024-02-15T01:51:37;100446.97;;;10.99;100.00
42411;BME280;28056;51.112;0.984;2024-02-15T01:54:05;100452.62;;;10.60;100.00
42411;BME280;28056;51.112;0.984;2024-02-15T01:56:32;100447.06;;;10.04;100.00
42411;BME280;28056;51.112;0.984;2024-02-15T01:59:01;100440.99;;;10.68;100.00
42411;BME280;28056;51.112;0.984;2024-02-15T02:01:30;100442.57;;;10.54;100.00
42411;BME280;28056;51.112;0.984;2024-02-15T02:03:58;100445.69;;;10.30;100.00
42411;BME280;28056;51.112;0.984;2024-02-15T02:06:27;100441.54;;;11.10;100.00
42411;BME280;28056;51.112;0.984;2024-02-15T02:08:54;100441.64;;;10.80;100.00
42411;BME280;28056;51.112;0.984;2024-02-15T02:11:22;100437.23;;;11.16;100.00
42411;BME280;28056;51.112;0.984;2024-02-15T02:13:50;100438.13;;;10.24;100.00
42411;BME280;28056;51.112;0.984;2024-02-15T02:16:25;100431.71;;;11.09;100.00
42411;BME280;28056;51.112;0.984;2024-02-15T02:18:54;100427.94;;;10.95;100.00
42411;BME280;28056;51.112;0.984;2024-02-15T02:21:22;100433.03;;;10.78;100.00
42411;BME280;28056;51.112;0.984;2024-02-15T02:23:53;100431.77;;;10.53;100.00
42411;BME280;28056;51.112;0.984;2024-02-15T02:26:23;100424.12;;;11.48;100.00
42411;BME280;28056;51.112;0.984;2024-02-15T02:29:06;100418.78;;;10.27;100.00
42411;BME280;28056;51.112;0.984;2024-02-15T02:31:34;100419.37;;;10.68;100.00
42411;BME280;28056;51.112;0.984;2024-02-15T02:34:01;100416.50;;;11.46;100.00
42411;BME280;28056;51.112;0.984;2024-02-15T02:36:29;100411.98;;;10.72;100.00
42411;BME280;28056;51.112;0.984;2024-02-15T02:38:56;100407.94;;;10.94;100.00
42411;BME280;28056;51.112;0.984;2024-02-15T02:41:23;100407.56;;;11.45;100.00
42411;BME280;28056;51.112;0.984;2024-02-15T02:43:51;100400.28;;;10.68;100.00
42411;BME280;28056;51.112;0.984;2024-02-15T02:46:19;100397.15;;;10.33;100.00
42411;BME280;28056;51.112;0.984;2024-02-15T02:48:47;100392.87;;;10.83;100.00
42411;BME280;28056;51.112;0.984;2024-02-15T02:51:14;100393.86;;;10.81;100.00
42411;BME280;28056;51.112;0.984;2024-02-15T02:53:42;100389.60;;;10.45;100.00
42411;BME280;28056;51.112;0.984;2024-02-15T02:56:10;100382.89;;;11.00;100.00
42411;BME280;28056;51.112;0.984;2024-02-15T02:58:38;100389.76;;;11.11;100.00
42411;BME280;28056;51.112;0.984;2024-02-15T03:01:05;100391.95;;;11.50;100.00
42411;BME280;28056;51.112;0.984;2024-02-15T03:03:33;100388.31;;;11.09;100.00
42411;BME280;28056;51.112;0.984;2024-02-15T03:06:01;100390.92;;;10.36;100.00
42411;BME280;28056;51.112;0.984;2024-02-15T03:08:29;100387.60;;;10.87;100.00
42411;BME280;28056;51.112;0.984;2024-02-15T03:10:56;100383.32;;;10.56;100.00
42411;BME280;28056;51.112;0.984;2024-02-15T03:13:24;100382.49;;;11.04;100.00
42411;BME280;28056;51.112;0.984;2024-02-15T03:15:51;100381.39;;;11.27;100.00
42411;BME280;28056;51.112;0.984;2024-02-15T03:18:19;100379.73;;;11.14;100.00
42411;BME280;28056;51.112;0.984;2024-02-15T03:20:47;100381.08;;;11.80;100.00
42411;BME280;28056;51.112;0.984;2024-02-15T03:23:15;100379.73;;;11.10;100.00
42411;BME280;28056;51.112;0.984;2024-02-15T03:25:42;100378.61;;;11.04;100.00
42411;BME280;28056;51.112;0.984;2024-02-15T03:28:10;100379.42;;;10.69;100.00
42411;BME280;28056;51.112;0.984;2024-02-15T03:30:38;100376.72;;;10.88;100.00
42411;BME280;28056;51.112;0.984;2024-02-15T03:33:05;100376.45;;;10.82;100.00
42411;BME280;28056;51.112;0.984;2024-02-15T03:35:34;100377.39;;;10.63;100.00
42411;BME280;28056;51.112;0.984;2024-02-15T03:38:01;100378.78;;;10.43;100.00
42411;BME280;28056;51.112;0.984;2024-02-15T03:40:29;100380.31;;;10.91;100.00
42411;BME280;28056;51.112;0.984;2024-02-15T03:42:56;100382.95;;;11.46;100.00
42411;BME280;28056;51.112;0.984;2024-02-15T03:45:24;100379.57;;;10.45;100.00
42411;BME280;28056;51.112;0.984;2024-02-15T03:47:52;100376.18;;;10.56;100.00
42411;BME280;28056;51.112;0.984;2024-02-15T03:50:20;100377.46;;;10.56;100.00
42411;BME280;28056;51.112;0.984;2024-02-15T03:52:47;100374.64;;;11.18;100.00
42411;BME280;28056;51.112;0.984;2024-02-15T03:55:15;100370.57;;;10.74;100.00
42411;BME280;28056;51.112;0.984;2024-02-15T03:57:43;100367.61;;;11.26;100.00
42411;BME280;28056;51.112;0.984;2024-02-15T04:00:11;100367.63;;;10.73;100.00
42411;BME280;28056;51.112;0.984;2024-02-15T04:02:39;100362.02;;;11.06;100.00
42411;BME280;28056;51.112;0.984;2024-02-15T04:05:08;100358.89;;;11.45;100.00
42411;BME280;28056;51.112;0.984;2024-02-15T04:07:36;100361.01;;;10.90;100.00
42411;BME280;28056;51.112;0.984;2024-02-15T04:10:05;100354.07;;;11.39;100.00
42411;BME280;28056;51.112;0.984;2024-02-15T04:12:32;100360.65;;;11.17;100.00
42411;BME280;28056;51.112;0.984;2024-02-15T04:15:00;100371.98;;;10.85;100.00
42411;BME280;28056;51.112;0.984;2024-02-15T04:17:28;100367.26;;;11.53;100.00
42411;BME280;28056;51.112;0.984;2024-02-15T04:19:56;100364.38;;;10.99;100.00
42411;BME280;28056;51.112;0.984;2024-02-15T04:22:23;100362.14;;;11.53;100.00
42411;BME280;28056;51.112;0.984;2024-02-15T04:24:51;100363.40;;;11.51;100.00
42411;BME280;28056;51.112;0.984;2024-02-15T04:27:19;100359.46;;;11.81;100.00
42411;BME280;28056;51.112;0.984;2024-02-15T04:29:51;100361.16;;;11.53;100.00
42411;BME280;28056;51.112;0.984;2024-02-15T04:32:18;100363.93;;;11.81;100.00
42411;BME280;28056;51.112;0.984;2024-02-15T04:34:46;100363.14;;;11.58;100.00
42411;BME280;28056;51.112;0.984;2024-02-15T04:37:14;100363.12;;;11.29;100.00
42411;BME280;28056;51.112;0.984;2024-02-15T04:39:42;100356.82;;;10.82;100.00
42411;BME280;28056;51.112;0.984;2024-02-15T04:42:10;100355.09;;;10.41;100.00
42411;BME280;28056;51.112;0.984;2024-02-15T04:44:38;100355.23;;;11.44;100.00
42411;BME280;28056;51.112;0.984;2024-02-15T04:47:06;100358.97;;;11.86;100.00
42411;BME280;28056;51.112;0.984;2024-02-15T04:49:34;100351.38;;;11.25;100.00
42411;BME280;28056;51.112;0.984;2024-02-15T04:52:01;100350.20;;;11.69;100.00
42411;BME280;28056;51.112;0.984;2024-02-15T04:54:29;100342.85;;;11.59;100.00
42411;BME280;28056;51.112;0.984;2024-02-15T04:56:57;100338.85;;;11.10;100.00
42411;BME280;28056;51.112;0.984;2024-02-15T04:59:24;100343.74;;;12.26;100.00
42411;BME280;28056;51.112;0.984;2024-02-15T05:01:52;100336.61;;;12.47;100.00
42411;BME280;28056;51.112;0.984;2024-02-15T05:04:19;100343.91;;;11.90;100.00
42411;BME280;28056;51.112;0.984;2024-02-15T05:06:47;100347.70;;;12.43;100.00
42411;BME280;28056;51.112;0.984;2024-02-15T05:09:15;100351.85;;;12.63;100.00
42411;BME280;28056;51.112;0.984;2024-02-15T05:11:43;100348.56;;;12.81;100.00
42411;BME280;28056;51.112;0.984;2024-02-15T05:14:10;100347.23;;;13.12;100.00
42411;BME280;28056;51.112;0.984;2024-02-15T05:16:38;100344.80;;;11.40;100.00
42411;BME280;28056;51.112;0.984;2024-02-15T05:19:06;100348.71;;;11.98;100.00
42411;BME280;28056;51.112;0.984;2024-02-15T05:21:33;100341.43;;;11.42;100.00
42411;BME280;28056;51.112;0.984;2024-02-15T05:24:00;100346.52;;;12.19;100.00
42411;BME280;28056;51.112;0.984;2024-02-15T05:26:28;100348.12;;;12.51;100.00
42411;BME280;28056;51.112;0.984;2024-02-15T05:28:56;100346.78;;;12.30;100.00
42411;BME280;28056;51.112;0.984;2024-02-15T05:31:23;100344.75;;;12.86;100.00
42411;BME280;28056;51.112;0.984;2024-02-15T05:33:52;100341.86;;;12.34;100.00
42411;BME280;28056;51.112;0.984;2024-02-15T05:36:20;100343.57;;;12.12;100.00
42411;BME280;28056;51.112;0.984;2024-02-15T05:38:49;100343.71;;;12.48;100.00
42411;BME280;28056;51.112;0.984;2024-02-15T05:41:17;100344.29;;;11.90;100.00
42411;BME280;28056;51.112;0.984;2024-02-15T05:43:44;100346.27;;;12.08;100.00
42411;BME280;28056;51.112;0.984;2024-02-15T05:46:12;100343.38;;;11.79;100.00
42411;BME280;28056;51.112;0.984;2024-02-15T05:48:40;100343.14;;;11.02;100.00
42411;BME280;28056;51.112;0.984;2024-02-15T05:51:08;100344.41;;;11.21;100.00
42411;BME280;28056;51.112;0.984;2024-02-15T05:53:36;100346.86;;;11.75;100.00
42411;BME280;28056;51.112;0.984;2024-02-15T05:56:04;100346.50;;;10.89;100.00
42411;BME280;28056;51.112;0.984;2024-02-15T05:58:32;100346.74;;;10.61;100.00
42411;BME280;28056;51.112;0.984;2024-02-15T06:01:00;100343.56;;;10.87;100.00
42411;BME280;28056;51.112;0.984;2024-02-15T06:03:28;100338.60;;;10.53;100.00
42411;BME280;28056;51.112;0.984;2024-02-15T06:05:56;100330.40;;;10.91;100.00
42411;BME280;28056;51.112;0.984;2024-02-15T06:08:24;100329.78;;;10.86;100.00
42411;BME280;28056;51.112;0.984;2024-02-15T06:10:51;100332.36;;;10.94;100.00
42411;BME280;28056;51.112;0.984;2024-02-15T06:13:19;100336.67;;;10.13;100.00
42411;BME280;28056;51.112;0.984;2024-02-15T06:15:46;100335.18;;;10.97;100.00
42411;BME280;28056;51.112;0.984;2024-02-15T06:18:14;100338.89;;;11.28;100.00
42411;BME280;28056;51.112;0.984;2024-02-15T06:20:41;100339.97;;;10.48;100.00
42411;BME280;28056;51.112;0.984;2024-02-15T06:23:09;100337.67;;;10.95;100.00
42411;BME280;28056;51.112;0.984;2024-02-15T06:25:36;100335.12;;;10.82;100.00
42411;BME280;28056;51.112;0.984;2024-02-15T06:28:04;100333.29;;;10.69;100.00
42411;BME280;28056;51.112;0.984;2024-02-15T06:30:32;100333.46;;;10.75;100.00
42411;BME280;28056;51.112;0.984;2024-02-15T06:33:00;100335.18;;;10.59;100.00
42411;BME280;28056;51.112;0.984;2024-02-15T06:35:28;100339.44;;;11.21;100.00
42411;BME280;28056;51.112;0.984;2024-02-15T06:37:55;100329.56;;;10.74;100.00
42411;BME280;28056;51.112;0.984;2024-02-15T06:40:23;100324.20;;;10.98;100.00
42411;BME280;28056;51.112;0.984;2024-02-15T06:42:51;100321.41;;;10.52;100.00
42411;BME280;28056;51.112;0.984;2024-02-15T06:45:18;100320.12;;;11.04;100.00
42411;BME280;28056;51.112;0.984;2024-02-15T06:47:46;100326.79;;;10.53;100.00
42411;BME280;28056;51.112;0.984;2024-02-15T06:50:14;100328.75;;;11.15;100.00
42411;BME280;28056;51.112;0.984;2024-02-15T06:52:42;100329.78;;;10.65;100.00
42411;BME280;28056;51.112;0.984;2024-02-15T06:55:10;100333.24;;;10.49;100.00
42411;BME280;28056;51.112;0.984;2024-02-15T06:57:38;100333.40;;;10.77;100.00
42411;BME280;28056;51.112;0.984;2024-02-15T07:00:06;100333.90;;;11.03;100.00
42411;BME280;28056;51.112;0.984;2024-02-15T07:02:34;100330.69;;;10.26;100.00
42411;BME280;28056;51.112;0.984;2024-02-15T07:05:12;100322.03;;;10.74;100.00
42411;BME280;28056;51.112;0.984;2024-02-15T07:07:45;100324.96;;;10.80;100.00
42411;BME280;28056;51.112;0.984;2024-02-15T07:10:12;100324.78;;;10.88;100.00
42411;BME280;28056;51.112;0.984;2024-02-15T07:12:40;100324.16;;;11.11;100.00
42411;BME280;28056;51.112;0.984;2024-02-15T07:15:08;100320.56;;;10.62;100.00
42411;BME280;28056;51.112;0.984;2024-02-15T07:17:35;100322.08;;;10.61;100.00
42411;BME280;28056;51.112;0.984;2024-02-15T07:20:03;100320.84;;;10.21;100.00
42411;BME280;28056;51.112;0.984;2024-02-15T07:22:31;100319.97;;;10.74;100.00
42411;BME280;28056;51.112;0.984;2024-02-15T07:24:58;100321.18;;;10.35;100.00
42411;BME280;28056;51.112;0.984;2024-02-15T07:27:26;100323.98;;;10.59;100.00
42411;BME280;28056;51.112;0.984;2024-02-15T07:29:53;100322.12;;;11.08;100.00
42411;BME280;28056;51.112;0.984;2024-02-15T07:32:21;100324.60;;;10.68;100.00
42411;BME280;28056;51.112;0.984;2024-02-15T07:34:48;100319.16;;;10.53;100.00
42411;BME280;28056;51.112;0.984;2024-02-15T07:37:15;100322.25;;;10.86;100.00
42411;BME280;28056;51.112;0.984;2024-02-15T07:39:43;100316.65;;;10.68;100.00
42411;BME280;28056;51.112;0.984;2024-02-15T07:42:10;100318.43;;;10.73;100.00
42411;BME280;28056;51.112;0.984;2024-02-15T07:44:37;100322.39;;;11.19;100.00
42411;BME280;28056;51.112;0.984;2024-02-15T07:47:05;100322.64;;;10.67;100.00
42411;BME280;28056;51.112;0.984;2024-02-15T07:49:32;100321.52;;;10.87;100.00
42411;BME280;28056;51.112;0.984;2024-02-15T07:52:00;100319.28;;;10.66;100.00
42411;BME280;28056;51.112;0.984;2024-02-15T07:54:28;100323.18;;;10.51;100.00
42411;BME280;28056;51.112;0.984;2024-02-15T07:56:56;100327.57;;;10.99;100.00
42411;BME280;28056;51.112;0.984;2024-02-15T07:59:23;100316.36;;;10.94;100.00
42411;BME280;28056;51.112;0.984;2024-02-15T08:01:51;100316.16;;;10.64;100.00
42411;BME280;28056;51.112;0.984;2024-02-15T08:04:19;100304.14;;;11.22;100.00
42411;BME280;28056;51.112;0.984;2024-02-15T08:06:46;100296.17;;;11.06;100.00
42411;BME280;28056;51.112;0.984;2024-02-15T08:09:15;100295.74;;;11.28;100.00
42411;BME280;28056;51.112;0.984;2024-02-15T08:11:42;100299.76;;;11.22;100.00
42411;BME280;28056;51.112;0.984;2024-02-15T08:14:09;100292.40;;;11.34;100.00
42411;BME280;28056;51.112;0.984;2024-02-15T08:16:37;100295.31;;;11.33;100.00
42411;BME280;28056;51.112;0.984;2024-02-15T08:19:05;100303.69;;;11.03;100.00
42411;BME280;28056;51.112;0.984;2024-02-15T08:21:34;100307.97;;;11.19;100.00
42411;BME280;28056;51.112;0.984;2024-02-15T08:24:02;100311.20;;;10.94;100.00
42411;BME280;28056;51.112;0.984;2024-02-15T08:26:30;100310.68;;;11.53;100.00
42411;BME280;28056;51.112;0.984;2024-02-15T08:28:57;100302.76;;;11.23;100.00
42411;BME280;28056;51.112;0.984;2024-02-15T08:31:25;100298.78;;;11.22;100.00
42411;BME280;28056;51.112;0.984;2024-02-15T08:33:53;100303.14;;;11.05;100.00
42411;BME280;28056;51.112;0.984;2024-02-15T08:36:21;100304.88;;;11.27;100.00
42411;BME280;28056;51.112;0.984;2024-02-15T08:38:49;100308.24;;;10.71;100.00
42411;BME280;28056;51.112;0.984;2024-02-15T08:41:17;100311.55;;;10.66;100.00
42411;BME280;28056;51.112;0.984;2024-02-15T08:43:46;100308.83;;;10.45;100.00
42411;BME280;28056;51.112;0.984;2024-02-15T08:46:14;100304.92;;;10.69;100.00
42411;BME280;28056;51.112;0.984;2024-02-15T08:48:42;100300.08;;;10.83;100.00
42411;BME280;28056;51.112;0.984;2024-02-15T08:51:10;100302.70;;;10.81;100.00
42411;BME280;28056;51.112;0.984;2024-02-15T08:53:43;100295.79;;;11.23;100.00
42411;BME280;28056;51.112;0.984;2024-02-15T08:56:10;100288.94;;;11.22;100.00
42411;BME280;28056;51.112;0.984;2024-02-15T08:58:38;100280.21;;;11.41;100.00
42411;BME280;28056;51.112;0.984;2024-02-15T09:01:15;100279.58;;;11.23;100.00
42411;BME280;28056;51.112;0.984;2024-02-15T09:03:52;100275.65;;;11.54;100.00
42411;BME280;28056;51.112;0.984;2024-02-15T09:06:20;100272.44;;;11.70;100.00
42411;BME280;28056;51.112;0.984;2024-02-15T09:08:48;100265.60;;;11.87;100.00
42411;BME280;28056;51.112;0.984;2024-02-15T09:11:15;100268.10;;;12.21;100.00
42411;BME280;28056;51.112;0.984;2024-02-15T09:13:43;100272.51;;;12.77;100.00
42411;BME280;28056;51.112;0.984;2024-02-15T09:16:11;100276.14;;;12.67;100.00
42411;BME280;28056;51.112;0.984;2024-02-15T09:18:38;100265.36;;;12.75;100.00
42411;BME280;28056;51.112;0.984;2024-02-15T09:21:05;100258.77;;;12.82;100.00
42411;BME280;28056;51.112;0.984;2024-02-15T09:23:34;100253.90;;;12.96;100.00
42411;BME280;28056;51.112;0.984;2024-02-15T09:26:01;100247.80;;;11.50;100.00
42411;BME280;28056;51.112;0.984;2024-02-15T09:28:29;100243.29;;;12.26;100.00
42411;BME280;28056;51.112;0.984;2024-02-15T09:30:58;100239.25;;;12.10;100.00
42411;BME280;28056;51.112;0.984;2024-02-15T09:33:26;100235.93;;;11.62;100.00
42411;BME280;28056;51.112;0.984;2024-02-15T09:35:54;100235.01;;;11.28;100.00
42411;BME280;28056;51.112;0.984;2024-02-15T09:38:21;100230.12;;;11.36;100.00
42411;BME280;28056;51.112;0.984;2024-02-15T09:40:49;100228.86;;;11.44;100.00
42411;BME280;28056;51.112;0.984;2024-02-15T09:43:16;100225.73;;;11.12;100.00
42411;BME280;28056;51.112;0.984;2024-02-15T09:45:44;100230.06;;;11.71;100.00
42411;BME280;28056;51.112;0.984;2024-02-15T09:48:12;100234.92;;;12.05;100.00
42411;BME280;28056;51.112;0.984;2024-02-15T09:50:42;100242.41;;;11.53;100.00
42411;BME280;28056;51.112;0.984;2024-02-15T09:53:12;100240.95;;;11.23;100.00
42411;BME280;28056;51.112;0.984;2024-02-15T09:55:40;100232.08;;;11.69;100.00
42411;BME280;28056;51.112;0.984;2024-02-15T09:58:08;100234.66;;;11.82;100.00
42411;BME280;28056;51.112;0.984;2024-02-15T10:00:35;100234.76;;;11.17;100.00
42411;BME280;28056;51.112;0.984;2024-02-15T10:03:06;100232.99;;;10.60;100.00
42411;BME280;28056;51.112;0.984;2024-02-15T10:05:33;100231.99;;;11.46;100.00
42411;BME280;28056;51.112;0.984;2024-02-15T10:08:01;100225.00;;;11.07;100.00
42411;BME280;28056;51.112;0.984;2024-02-15T10:10:29;100218.75;;;10.86;100.00
42411;BME280;28056;51.112;0.984;2024-02-15T10:12:57;100212.43;;;11.33;100.00
42411;BME280;28056;51.112;0.984;2024-02-15T10:15:30;100205.33;;;10.93;100.00
42411;BME280;28056;51.112;0.984;2024-02-15T10:17:59;100203.26;;;11.03;100.00
42411;BME280;28056;51.112;0.984;2024-02-15T10:20:27;100202.65;;;11.16;100.00
42411;BME280;28056;51.112;0.984;2024-02-15T10:23:09;100197.41;;;10.98;100.00
42411;BME280;28056;51.112;0.984;2024-02-15T10:25:37;100195.68;;;11.38;100.00
42411;BME280;28056;51.112;0.984;2024-02-15T10:28:05;100187.69;;;11.41;100.00
42411;BME280;28056;51.112;0.984;2024-02-15T10:30:34;100185.34;;;12.53;100.00
42411;BME280;28056;51.112;0.984;2024-02-15T10:33:01;100188.25;;;12.57;100.00
42411;BME280;28056;51.112;0.984;2024-02-15T10:35:29;100186.77;;;12.24;100.00
42411;BME280;28056;51.112;0.984;2024-02-15T10:38:06;100184.08;;;12.57;100.00
42411;BME280;28056;51.112;0.984;2024-02-15T10:40:34;100177.12;;;12.35;100.00
42411;BME280;28056;51.112;0.984;2024-02-15T10:43:03;100170.08;;;13.66;100.00
42411;BME280;28056;51.112;0.984;2024-02-15T10:45:31;100169.37;;;13.75;100.00
42411;BME280;28056;51.112;0.984;2024-02-15T10:47:59;100169.74;;;13.64;100.00
42411;BME280;28056;51.112;0.984;2024-02-15T10:50:27;100174.11;;;13.31;100.00
42411;BME280;28056;51.112;0.984;2024-02-15T10:52:55;100176.42;;;12.98;100.00
42411;BME280;28056;51.112;0.984;2024-02-15T10:55:36;100181.58;;;13.23;100.00
42411;BME280;28056;51.112;0.984;2024-02-15T10:58:06;100183.58;;;13.07;100.00
42411;BME280;28056;51.112;0.984;2024-02-15T11:00:42;100185.17;;;13.11;100.00
42411;BME280;28056;51.112;0.984;2024-02-15T11:03:14;100185.50;;;12.87;100.00
42411;BME280;28056;51.112;0.984;2024-02-15T11:05:46;100179.21;;;12.48;100.00
42411;BME280;28056;51.112;0.984;2024-02-15T11:08:14;100175.85;;;12.16;100.00
42411;BME280;28056;51.112;0.984;2024-02-15T11:10:42;100168.14;;;12.62;100.00
42411;BME280;28056;51.112;0.984;2024-02-15T11:13:10;100158.79;;;12.64;100.00
42411;BME280;28056;51.112;0.984;2024-02-15T11:15:44;100159.41;;;12.19;100.00
42411;BME280;28056;51.112;0.984;2024-02-15T11:18:11;100150.04;;;12.47;100.00
42411;BME280;28056;51.112;0.984;2024-02-15T11:20:49;100142.84;;;12.59;100.00
42411;BME280;28056;51.112;0.984;2024-02-15T11:23:32;100137.72;;;12.14;100.00
42411;BME280;28056;51.112;0.984;2024-02-15T11:26:08;100130.37;;;12.41;100.00
42411;BME280;28056;51.112;0.984;2024-02-15T11:28:37;100119.42;;;12.20;100.00
42411;BME280;28056;51.112;0.984;2024-02-15T11:31:07;100115.69;;;12.31;100.00
42411;BME280;28056;51.112;0.984;2024-02-15T11:33:36;100118.87;;;11.80;100.00
42411;BME280;28056;51.112;0.984;2024-02-15T11:36:05;100124.19;;;11.88;100.00
42411;BME280;28056;51.112;0.984;2024-02-15T11:38:33;100116.09;;;12.03;100.00
42411;BME280;28056;51.112;0.984;2024-02-15T11:41:02;100111.05;;;11.60;100.00
42411;BME280;28056;51.112;0.984;2024-02-15T11:44:03;100108.03;;;12.37;100.00
42411;BME280;28056;51.112;0.984;2024-02-15T11:46:30;100100.54;;;11.50;100.00
42411;BME280;28056;51.112;0.984;2024-02-15T11:48:58;100091.51;;;11.56;100.00
42411;BME280;28056;51.112;0.984;2024-02-15T11:51:27;100089.84;;;11.94;100.00
42411;BME280;28056;51.112;0.984;2024-02-15T11:54:01;100081.03;;;11.50;100.00
42411;BME280;28056;51.112;0.984;2024-02-15T11:56:28;100075.99;;;11.57;100.00
42411;BME280;28056;51.112;0.984;2024-02-15T11:59:04;100074.98;;;11.75;100.00
42411;BME280;28056;51.112;0.984;2024-02-15T12:01:33;100068.90;;;11.55;100.00
42411;BME280;28056;51.112;0.984;2024-02-15T12:04:00;100063.49;;;11.51;100.00
42411;BME280;28056;51.112;0.984;2024-02-15T12:06:28;100062.56;;;11.82;100.00
42411;BME280;28056;51.112;0.984;2024-02-15T12:08:56;100063.14;;;11.60;100.00
42411;BME280;28056;51.112;0.984;2024-02-15T12:11:24;100058.90;;;11.37;100.00
42411;BME280;28056;51.112;0.984;2024-02-15T12:13:51;100056.15;;;11.95;100.00
42411;BME280;28056;51.112;0.984;2024-02-15T12:16:20;100056.10;;;11.67;100.00
42411;BME280;28056;51.112;0.984;2024-02-15T12:18:49;100057.13;;;11.29;100.00
42411;BME280;28056;51.112;0.984;2024-02-15T12:21:19;100054.72;;;11.46;100.00
42411;BME280;28056;51.112;0.984;2024-02-15T12:23:46;100043.66;;;11.66;100.00
42411;BME280;28056;51.112;0.984;2024-02-15T12:26:14;100031.65;;;11.83;100.00
42411;BME280;28056;51.112;0.984;2024-02-15T12:28:42;100030.05;;;12.25;100.00
42411;BME280;28056;51.112;0.984;2024-02-15T12:31:09;100023.89;;;12.06;100.00
42411;BME280;28056;51.112;0.984;2024-02-15T12:33:37;100016.62;;;12.62;100.00
42411;BME280;28056;51.112;0.984;2024-02-15T12:36:06;100010.13;;;12.98;100.00
42411;BME280;28056;51.112;0.984;2024-02-15T12:38:34;100007.72;;;13.82;100.00
42411;BME280;28056;51.112;0.984;2024-02-15T12:41:02;99999.06;;;13.60;100.00
42411;BME280;28056;51.112;0.984;2024-02-15T12:43:37;99993.13;;;14.12;100.00
42411;BME280;28056;51.112;0.984;2024-02-15T12:46:04;99996.14;;;14.59;100.00
42411;BME280;28056;51.112;0.984;2024-02-15T12:48:32;99991.97;;;14.71;100.00
42411;BME280;28056;51.112;0.984;2024-02-15T12:51:14;99988.50;;;14.33;100.00